Time;durP1;ratioP1;P1;durP2;ratioP2;P2;SDS_P1;SDS_P2;PMS_P1;PMS_P2;Temp;Humidity;BMP_temperature;BMP_pressure;BME280_temperature;BME280_humidity;BME280_pressure;Samples;Min_cycle;Max_cycle;Signal;HPM_P1;HPM_P2
2021/12/25 00:01:04;;;;;;;5.57;2.15;;;0.40;99.90;;;;;;5055643;28;20093;-55
2021/12/25 00:03:29;;;;;;;7.60;2.50;;;0.20;99.90;;;;;;5055061;28;20048;-53
2021/12/25 00:05:55;;;;;;;3.22;2.20;;;0.10;99.90;;;;;;5055900;28;20025;-54
2021/12/25 00:08:26;;;;;;;3.20;2.28;;;0.20;99.90;;;;;;5055025;28;20069;-54
2021/12/25 00:10:53;;;;;;;3.63;1.90;;;0.10;99.90;;;;;;5037578;28;20494;-52
2021/12/25 00:13:19;;;;;;;3.13;2.72;;;-0.10;99.90;;;;;;5037416;28;20626;-57
2021/12/25 00:15:45;;;;;;;2.80;2.05;;;-0.10;99.90;;;;;;5037575;28;20049;-54
2021/12/25 00:18:11;;;;;;;2.53;2.22;;;-0.20;99.90;;;;;;5055414;28;20040;-55
2021/12/25 00:20:37;;;;;;;2.53;2.13;;;-0.20;99.90;;;;;;5055131;28;20503;-55
2021/12/25 00:23:05;;;;;;;3.78;2.17;;;-0.10;99.90;;;;;;5054798;28;20098;-52
2021/12/25 00:25:39;;;;;;;2.25;1.83;;;-0.10;99.90;;;;;;5055120;28;20048;-53
2021/12/25 00:28:21;;;;;;;3.17;1.90;;;0.00;99.90;;;;;;5055740;28;20033;-53
2021/12/25 00:31:05;;;;;;;3.83;1.77;;;0.10;99.90;;;;;;5027203;28;20033;-53
2021/12/25 00:36:13;;;;;;;2.45;2.05;;;-0.20;99.90;;;;;;5055785;28;20071;-57
2021/12/25 00:38:42;;;;;;;3.85;1.60;;;-0.20;99.90;;;;;;5055993;28;20033;-52
2021/12/25 00:41:08;;;;;;;3.95;1.83;;;-0.30;99.90;;;;;;5056104;28;20106;-52
2021/12/25 00:43:34;;;;;;;3.38;1.55;;;-0.30;99.90;;;;;;5055811;28;20029;-53
2021/12/25 00:46:00;;;;;;;2.65;1.67;;;-0.40;99.90;;;;;;5054522;28;20028;-52
2021/12/25 00:48:26;;;;;;;2.83;1.90;;;-0.40;99.90;;;;;;5037311;28;20131;-52
2021/12/25 00:50:51;;;;;;;2.67;2.10;;;-0.50;99.90;;;;;;5036285;28;20045;-57
2021/12/25 00:53:17;;;;;;;6.30;2.20;;;-0.60;99.90;;;;;;5035047;28;20345;-53
2021/12/25 00:55:42;;;;;;;2.92;2.08;;;-0.60;99.90;;;;;;5037110;28;20447;-55
2021/12/25 00:58:08;;;;;;;3.83;2.33;;;-0.50;99.90;;;;;;5036849;28;20075;-55
2021/12/25 01:00:34;;;;;;;3.50;2.00;;;-0.60;99.90;;;;;;5037189;28;20385;-53
2021/12/25 01:02:59;;;;;;;2.00;1.60;;;-0.60;99.90;;;;;;5054494;28;20032;-54
2021/12/25 01:05:25;;;;;;;2.60;1.90;;;-0.60;99.90;;;;;;5037145;28;20391;-54
2021/12/25 01:07:51;;;;;;;4.25;2.30;;;-0.50;99.90;;;;;;5037270;28;20116;-55
2021/12/25 01:10:19;;;;;;;3.67;1.83;;;-0.30;99.90;;;;;;5055436;28;20037;-57
2021/12/25 01:15:29;;;;;;;3.20;2.50;;;-0.50;99.90;;;;;;5054348;28;20028;-55
2021/12/25 01:18:25;;;;;;;1.90;1.77;;;-0.50;99.90;;;;;;5054371;28;20484;-54
2021/12/25 01:31:58;;;;;;;4.22;2.25;;;-0.40;99.90;;;;;;5054435;28;20061;-53
2021/12/25 01:34:58;;;;;;;3.50;1.90;;;-0.60;99.90;;;;;;5038559;28;20036;-56
2021/12/25 01:47:50;;;;;;;3.60;1.73;;;-0.30;99.90;;;;;;5053885;28;20510;-52
2021/12/25 01:50:28;;;;;;;3.35;2.00;;;-0.30;99.90;;;;;;5053033;28;20441;-53
2021/12/25 01:52:55;;;;;;;2.97;2.20;;;-0.20;99.90;;;;;;5053174;28;20065;-54
2021/12/25 01:55:26;;;;;;;2.60;1.58;;;-0.30;99.90;;;;;;5053364;28;20039;-50
2021/12/25 01:57:57;;;;;;;4.00;2.13;;;-0.40;99.90;;;;;;5053098;28;20179;-50
2021/12/25 02:00:27;;;;;;;2.08;1.55;;;-0.50;99.90;;;;;;5047030;28;20047;-53
2021/12/25 02:02:54;;;;;;;4.15;2.03;;;-0.50;99.90;;;;;;5035092;28;20056;-56
2021/12/25 02:05:20;;;;;;;3.92;2.65;;;-0.70;99.90;;;;;;5054111;28;20572;-57
2021/12/25 02:07:46;;;;;;;2.63;1.75;;;-0.70;99.90;;;;;;5053504;28;20049;-56
2021/12/25 02:10:15;;;;;;;2.38;2.15;;;-0.70;99.90;;;;;;5053612;28;20035;-54
2021/12/25 02:12:41;;;;;;;2.13;1.83;;;-0.70;99.90;;;;;;5035478;28;20033;-54
2021/12/25 02:15:14;;;;;;;3.65;1.63;;;-0.70;99.90;;;;;;5053842;28;20530;-55
2021/12/25 02:20:14;;;;;;;3.33;1.50;;;-0.70;99.90;;;;;;5053014;28;20135;-55
2021/12/25 02:22:40;;;;;;;3.47;1.98;;;-0.70;99.90;;;;;;5035235;28;20037;-50
2021/12/25 02:25:06;;;;;;;3.47;2.10;;;-0.70;99.90;;;;;;5047363;28;20048;-53
2021/12/25 02:27:32;;;;;;;5.10;2.20;;;-0.80;99.90;;;;;;5049156;28;20029;-53
2021/12/25 02:29:58;;;;;;;3.35;2.30;;;-0.70;99.90;;;;;;5051836;28;20411;-56
2021/12/25 02:32:24;;;;;;;2.30;1.92;;;-0.70;99.90;;;;;;5051390;28;20033;-54
2021/12/25 02:34:49;;;;;;;3.72;2.00;;;-0.80;99.90;;;;;;5051257;28;20056;-50
2021/12/25 02:37:15;;;;;;;2.25;1.98;;;-0.90;99.90;;;;;;5051309;28;20040;-55
2021/12/25 02:39:41;;;;;;;3.15;2.17;;;-0.80;99.90;;;;;;5050919;28;20551;-56
2021/12/25 02:42:08;;;;;;;3.45;2.03;;;-0.80;99.90;;;;;;5051474;28;20060;-54
2021/12/25 02:44:33;;;;;;;5.30;2.10;;;-0.80;99.90;;;;;;5051156;28;20033;-51
2021/12/25 02:47:05;;;;;;;5.57;2.35;;;-0.80;99.90;;;;;;5033464;28;20061;-52
2021/12/25 02:49:31;;;;;;;2.75;2.15;;;-0.90;99.90;;;;;;5051339;28;20140;-54
2021/12/25 02:51:56;;;;;;;4.15;2.72;;;-0.90;99.90;;;;;;5051179;28;20068;-51
2021/12/25 02:54:22;;;;;;;4.47;2.72;;;-1.00;99.90;;;;;;5032835;28;20137;-53
2021/12/25 02:56:48;;;;;;;3.42;2.50;;;-1.00;99.90;;;;;;5051632;28;20033;-56
2021/12/25 02:59:15;;;;;;;3.63;2.40;;;-1.00;99.90;;;;;;5050938;28;20112;-55
2021/12/25 03:01:41;;;;;;;7.55;2.92;;;-1.00;99.90;;;;;;5051069;28;20033;-54
2021/12/25 03:04:06;;;;;;;2.80;2.30;;;-1.00;99.90;;;;;;5051117;28;20040;-51
2021/12/25 03:06:36;;;;;;;6.03;2.70;;;-1.00;99.90;;;;;;5051264;28;20499;-54
2021/12/25 03:09:05;;;;;;;5.82;2.72;;;-1.10;99.90;;;;;;5051021;28;20043;-55
2021/12/25 03:11:32;;;;;;;4.20;2.30;;;-1.10;99.90;;;;;;5051119;28;20048;-57
2021/12/25 03:14:03;;;;;;;5.22;2.90;;;-1.10;99.90;;;;;;5052783;28;20048;-54
2021/12/25 03:16:29;;;;;;;3.38;2.40;;;-1.10;99.90;;;;;;5038171;28;20452;-52
2021/12/25 03:18:56;;;;;;;7.63;2.60;;;-1.10;99.90;;;;;;5055922;28;20080;-54
2021/12/25 03:21:23;;;;;;;3.67;2.70;;;-1.00;99.90;;;;;;5056303;28;20431;-52
2021/12/25 03:23:52;;;;;;;3.83;2.58;;;-1.10;99.90;;;;;;5056413;28;20025;-54
2021/12/25 03:26:18;;;;;;;3.95;2.38;;;-1.10;99.90;;;;;;5057002;28;20056;-56
2021/12/25 03:28:45;;;;;;;3.65;2.50;;;-1.00;99.90;;;;;;5056969;28;20029;-54
2021/12/25 03:31:17;;;;;;;4.10;2.10;;;-1.00;99.90;;;;;;5039149;28;20035;-56
2021/12/25 03:33:45;;;;;;;3.17;2.60;;;-1.10;99.90;;;;;;5056190;28;20044;-50
2021/12/25 03:36:11;;;;;;;2.47;1.98;;;-1.10;99.90;;;;;;5039490;28;20048;-50
2021/12/25 03:38:36;;;;;;;3.58;2.10;;;-1.20;99.90;;;;;;5056396;28;20503;-53
2021/12/25 03:41:03;;;;;;;4.20;2.28;;;-1.30;99.90;;;;;;5056596;28;20037;-55
2021/12/25 03:43:28;;;;;;;2.67;1.75;;;-1.30;99.90;;;;;;5056009;28;20052;-52
2021/12/25 03:45:55;;;;;;;2.53;1.60;;;-1.30;99.90;;;;;;5057378;28;20033;-53
2021/12/25 03:58:49;;;;;;;3.47;1.73;;;-1.50;99.90;;;;;;5057560;28;20029;-53
2021/12/25 04:01:29;;;;;;;2.35;1.60;;;-1.50;99.90;;;;;;5058214;28;20044;-54
2021/12/25 04:04:11;;;;;;;2.53;1.40;;;-1.40;99.90;;;;;;5056010;28;20026;-54
2021/12/25 04:06:48;;;;;;;2.67;1.40;;;-1.40;99.90;;;;;;5054651;28;20033;-55
2021/12/25 04:09:23;;;;;;;3.75;1.40;;;-1.50;99.90;;;;;;5055953;28;20037;-52
2021/12/25 04:11:49;;;;;;;3.80;1.70;;;-1.60;99.90;;;;;;5056745;28;20036;-55
2021/12/25 04:14:15;;;;;;;3.20;1.70;;;-1.60;99.90;;;;;;5055902;28;20052;-53
2021/12/25 04:16:41;;;;;;;1.40;1.30;;;-1.50;99.90;;;;;;5055224;28;20111;-51
2021/12/25 04:19:07;;;;;;;3.20;1.52;;;-1.60;99.90;;;;;;5055920;28;20204;-55
2021/12/25 04:21:34;;;;;;;3.97;1.45;;;-1.50;99.90;;;;;;5054967;28;20517;-55
2021/12/25 04:24:00;;;;;;;1.67;1.33;;;-1.50;99.90;;;;;;5055745;28;20052;-56
2021/12/25 04:26:26;;;;;;;2.47;1.20;;;-1.60;99.90;;;;;;5054968;28;20040;-53
2021/12/25 04:29:19;;;;;;;4.03;1.50;;;-1.50;99.90;;;;;;5055575;28;20037;-52
2021/12/25 04:48:31;;;;;;;2.97;1.45;;;-1.50;99.90;;;;;;5020941;28;20351;-53
2021/12/25 05:01:53;;;;;;;1.98;1.70;;;-1.60;99.90;;;;;;5056556;28;20029;-54
2021/12/25 05:07:21;;;;;;;3.17;1.88;;;-1.50;99.90;;;;;;4973973;28;20043;-53
2021/12/25 05:09:46;;;;;;;2.50;1.38;;;-1.60;99.90;;;;;;5039094;28;20052;-56
2021/12/25 05:12:12;;;;;;;2.70;1.40;;;-1.70;99.90;;;;;;5055914;28;20029;-54
2021/12/25 05:14:39;;;;;;;3.30;2.13;;;-1.80;99.90;;;;;;5038036;28;20052;-54
2021/12/25 05:17:06;;;;;;;3.47;1.60;;;-1.80;99.90;;;;;;5055108;28;20441;-54
2021/12/25 05:19:32;;;;;;;2.75;1.63;;;-1.80;99.90;;;;;;5055742;28;20127;-52
2021/12/25 05:21:58;;;;;;;4.65;1.40;;;-1.80;99.90;;;;;;5055281;28;20017;-52
2021/12/25 05:24:24;;;;;;;2.30;1.35;;;-1.70;99.90;;;;;;5054802;28;20043;-53
2021/12/25 05:26:49;;;;;;;2.38;1.45;;;-1.70;99.90;;;;;;5037340;28;20429;-53
2021/12/25 05:29:23;;;;;;;3.00;1.60;;;-1.70;99.90;;;;;;5055926;28;20052;-53
2021/12/25 05:31:49;;;;;;;1.70;1.38;;;-1.80;99.90;;;;;;5038544;28;20028;-55
2021/12/25 05:34:14;;;;;;;2.10;1.58;;;-1.70;99.90;;;;;;5054299;28;20118;-53
2021/12/25 05:36:40;;;;;;;2.17;1.40;;;-1.70;99.90;;;;;;5054736;28;20036;-53
2021/12/25 05:39:09;;;;;;;2.53;1.45;;;-1.80;99.90;;;;;;5054523;28;20048;-54
2021/12/25 05:41:35;;;;;;;1.88;1.50;;;-1.80;99.90;;;;;;5036013;28;20033;-56
2021/12/25 05:44:00;;;;;;;2.97;1.52;;;-1.90;99.90;;;;;;5035911;28;20127;-54
2021/12/25 05:46:27;;;;;;;2.85;1.88;;;-1.80;99.90;;;;;;5054129;28;20024;-57
2021/12/25 05:48:52;;;;;;;1.83;1.60;;;-1.90;99.90;;;;;;5054652;28;20037;-57
2021/12/25 05:51:18;;;;;;;4.15;1.80;;;-1.80;99.90;;;;;;5054125;28;20112;-56
2021/12/25 05:53:44;;;;;;;1.55;1.42;;;-1.80;99.90;;;;;;5054286;28;20051;-52
2021/12/25 05:56:11;;;;;;;2.38;1.63;;;-1.90;99.90;;;;;;5054363;28;20481;-52
2021/12/25 05:58:36;;;;;;;1.73;1.40;;;-1.90;99.90;;;;;;5054226;28;20108;-51
2021/12/25 06:01:04;;;;;;;2.65;1.95;;;-1.90;99.90;;;;;;5053240;28;20056;-56
2021/12/25 06:03:30;;;;;;;2.35;1.80;;;-1.90;99.90;;;;;;5053973;28;20029;-54
2021/12/25 06:05:57;;;;;;;3.40;1.92;;;-1.90;99.90;;;;;;5053675;28;20044;-51
2021/12/25 06:08:23;;;;;;;2.53;2.05;;;-1.90;99.90;;;;;;5036495;28;20079;-52
2021/12/25 06:10:49;;;;;;;3.28;2.00;;;-1.90;99.90;;;;;;5054132;28;20319;-52
2021/12/25 06:13:19;;;;;;;5.88;2.05;;;-1.90;99.90;;;;;;5054642;28;20091;-52
2021/12/25 06:15:44;;;;;;;2.72;1.67;;;-2.00;99.90;;;;;;5054158;28;20055;-53
2021/12/25 06:18:11;;;;;;;3.05;2.00;;;-1.90;99.90;;;;;;5054390;28;20538;-54
2021/12/25 06:20:37;;;;;;;2.55;1.73;;;-1.80;99.90;;;;;;5053486;28;20110;-52
2021/12/25 06:23:03;;;;;;;4.65;1.80;;;-1.90;99.90;;;;;;5036040;28;20047;-52
2021/12/25 06:25:29;;;;;;;3.78;1.58;;;-1.80;99.90;;;;;;5054018;28;20033;-55
2021/12/25 06:27:55;;;;;;;3.67;1.85;;;-1.80;99.90;;;;;;5054273;28;20024;-51
2021/12/25 06:30:21;;;;;;;3.25;1.63;;;-1.80;99.90;;;;;;5036261;28;20508;-52
2021/12/25 06:32:46;;;;;;;1.90;1.60;;;-1.70;99.90;;;;;;5036233;28;20037;-51
2021/12/25 06:35:12;;;;;;;2.97;1.98;;;-1.70;99.90;;;;;;5054079;28;20044;-53
2021/12/25 06:37:41;;;;;;;1.95;1.63;;;-1.70;99.90;;;;;;5054235;28;20029;-53
2021/12/25 06:40:09;;;;;;;1.95;1.35;;;-1.70;99.90;;;;;;5053805;28;20539;-55
2021/12/25 06:42:35;;;;;;;2.53;1.60;;;-1.70;99.90;;;;;;5053492;28;20025;-54
2021/12/25 06:45:01;;;;;;;3.75;2.08;;;-1.60;99.90;;;;;;5052946;28;20033;-53
2021/12/25 06:47:27;;;;;;;2.25;1.55;;;-1.50;99.90;;;;;;5052849;28;20068;-53
2021/12/25 06:49:52;;;;;;;3.53;1.90;;;-1.60;99.90;;;;;;5058791;28;20507;-51
2021/12/25 06:52:18;;;;;;;3.90;1.92;;;-1.60;99.90;;;;;;5059204;28;20365;-52
2021/12/25 06:54:43;;;;;;;4.00;1.73;;;-1.70;99.90;;;;;;5059213;28;20040;-55
2021/12/25 06:57:09;;;;;;;3.50;2.00;;;-1.70;99.90;;;;;;5060121;28;20041;-54
2021/12/25 06:59:35;;;;;;;8.20;3.60;;;-1.70;99.90;;;;;;5059975;28;20036;-53
2021/12/25 07:02:00;;;;;;;9.25;3.25;;;-1.70;99.90;;;;;;5029554;28;20404;-53
2021/12/25 07:04:26;;;;;;;5.07;2.10;;;-1.70;99.90;;;;;;5048827;28;20503;-53
2021/12/25 07:06:52;;;;;;;5.95;2.40;;;-1.70;99.90;;;;;;5060480;28;20400;-55
2021/12/25 07:09:17;;;;;;;3.58;1.83;;;-1.80;99.90;;;;;;5042423;28;20130;-53
2021/12/25 07:11:43;;;;;;;3.58;1.77;;;-1.90;99.90;;;;;;5048577;28;20041;-53
2021/12/25 07:14:11;;;;;;;3.47;1.92;;;-1.90;99.90;;;;;;5060908;28;20045;-56
2021/12/25 07:16:37;;;;;;;3.03;2.05;;;-1.90;99.90;;;;;;5051780;28;20120;-57
2021/12/25 07:19:03;;;;;;;4.95;2.42;;;-1.90;99.90;;;;;;5023227;28;20037;-52
2021/12/25 07:21:29;;;;;;;4.78;2.30;;;-1.80;99.90;;;;;;5023475;28;20056;-53
2021/12/25 07:23:55;;;;;;;3.00;1.95;;;-1.80;99.90;;;;;;5060120;28;20045;-56
2021/12/25 07:26:21;;;;;;;3.25;1.85;;;-1.80;99.90;;;;;;5060515;28;20040;-55
2021/12/25 07:28:48;;;;;;;3.33;2.03;;;-1.80;99.90;;;;;;5060380;28;20043;-55
2021/12/25 07:31:14;;;;;;;5.22;2.25;;;-1.70;99.90;;;;;;5042101;28;20068;-54
2021/12/25 07:33:43;;;;;;;2.90;2.10;;;-1.70;99.90;;;;;;5059667;28;20124;-54
2021/12/25 07:36:12;;;;;;;4.57;2.63;;;-1.60;99.90;;;;;;5059744;28;20467;-55
2021/12/25 07:38:38;;;;;;;4.88;2.15;;;-1.70;99.90;;;;;;5059816;28;20025;-55
2021/12/25 07:41:05;;;;;;;4.80;2.25;;;-1.80;99.90;;;;;;5042307;28;20021;-56
2021/12/25 07:43:31;;;;;;;2.63;1.90;;;-1.80;99.90;;;;;;5052174;28;20067;-53
2021/12/25 07:45:57;;;;;;;6.60;2.60;;;-1.70;99.90;;;;;;5040257;28;20036;-52
2021/12/25 07:48:25;;;;;;;5.38;2.90;;;-1.70;99.90;;;;;;5048110;28;20527;-57
2021/12/25 07:50:52;;;;;;;5.60;2.90;;;-1.70;99.90;;;;;;5059611;28;20037;-55
2021/12/25 07:53:18;;;;;;;4.35;2.70;;;-1.80;99.90;;;;;;5057923;28;20059;-54
2021/12/25 07:55:47;;;;;;;3.70;2.47;;;-1.80;99.90;;;;;;5059121;28;20480;-56
2021/12/25 07:58:13;;;;;;;4.70;3.10;;;-1.70;99.90;;;;;;5058954;28;20298;-56
2021/12/25 08:00:39;;;;;;;4.00;2.47;;;-1.70;99.90;;;;;;5056836;28;20417;-52
2021/12/25 08:03:05;;;;;;;5.78;2.42;;;-1.70;99.90;;;;;;5056190;28;20124;-53
2021/12/25 08:05:32;;;;;;;4.88;2.53;;;-1.70;99.90;;;;;;5056376;28;20029;-55
2021/12/25 08:07:58;;;;;;;6.30;2.70;;;-1.50;99.90;;;;;;5056793;28;20116;-53
2021/12/25 08:10:23;;;;;;;5.70;2.75;;;-1.60;99.90;;;;;;5034859;28;20083;-56
2021/12/25 08:12:54;;;;;;;6.03;2.50;;;-1.60;99.90;;;;;;5056264;28;20025;-55
2021/12/25 08:15:23;;;;;;;4.85;2.38;;;-1.60;99.90;;;;;;5055939;28;20507;-56
2021/12/25 08:17:50;;;;;;;5.57;2.80;;;-1.50;99.90;;;;;;5055810;28;20117;-51
2021/12/25 08:20:17;;;;;;;5.07;3.10;;;-1.60;99.90;;;;;;5033882;28;20036;-50
2021/12/25 08:22:43;;;;;;;4.57;3.03;;;-1.60;99.90;;;;;;5056564;28;20513;-55
2021/12/25 08:25:10;;;;;;;5.30;2.67;;;-1.70;99.90;;;;;;5038590;28;20119;-54
2021/12/25 08:27:37;;;;;;;7.35;3.47;;;-1.70;99.90;;;;;;5053739;28;20032;-54
2021/12/25 08:30:05;;;;;;;5.65;2.80;;;-1.60;99.90;;;;;;5037249;28;20541;-57
2021/12/25 08:32:30;;;;;;;5.18;3.20;;;-1.70;99.90;;;;;;5039013;28;20029;-56
2021/12/25 08:34:56;;;;;;;4.72;2.92;;;-1.80;99.90;;;;;;5042219;28;20044;-54
2021/12/25 08:37:23;;;;;;;5.07;2.95;;;-1.90;99.90;;;;;;5036094;28;20095;-56
2021/12/25 08:39:50;;;;;;;7.90;3.65;;;-1.90;99.90;;;;;;5035958;28;20489;-54
2021/12/25 08:42:16;;;;;;;7.65;3.03;;;-1.80;99.90;;;;;;5035651;28;20033;-57
2021/12/25 08:45:04;;;;;;;5.95;3.45;;;-1.90;99.90;;;;;;5018556;28;20556;-57
2021/12/25 08:47:30;;;;;;;4.53;2.92;;;-2.00;99.90;;;;;;5038245;28;20060;-54
2021/12/25 08:49:57;;;;;;;5.50;3.25;;;-2.00;99.90;;;;;;5056667;28;20068;-55
2021/12/25 08:52:24;;;;;;;5.90;3.28;;;-1.90;99.90;;;;;;5054617;28;20108;-52
2021/12/25 08:54:51;;;;;;;6.80;3.22;;;-1.90;99.90;;;;;;5055687;28;20481;-57
2021/12/25 08:57:20;;;;;;;6.00;2.70;;;-1.90;99.90;;;;;;5055709;28;20045;-55
2021/12/25 08:59:46;;;;;;;4.28;3.10;;;-1.90;99.90;;;;;;5054400;28;20055;-55
2021/12/25 09:02:15;;;;;;;4.63;2.67;;;-1.90;99.90;;;;;;5054503;28;20120;-54
2021/12/25 09:04:43;;;;;;;5.35;2.60;;;-2.00;99.90;;;;;;5055576;28;20111;-57
2021/12/25 09:07:10;;;;;;;6.90;2.97;;;-2.00;99.90;;;;;;5056315;28;20035;-51
2021/12/25 09:09:36;;;;;;;5.03;2.78;;;-2.00;99.90;;;;;;5037981;28;20032;-53
2021/12/25 09:12:03;;;;;;;5.43;2.58;;;-2.10;99.90;;;;;;5054152;28;20453;-53
2021/12/25 09:14:29;;;;;;;6.70;3.10;;;-2.00;99.90;;;;;;5055150;28;20025;-55
2021/12/25 09:16:56;;;;;;;5.03;2.40;;;-2.10;99.90;;;;;;5055118;28;20310;-54
2021/12/25 09:19:22;;;;;;;4.50;2.50;;;-2.20;99.90;;;;;;5054721;28;20053;-54
2021/12/25 09:21:48;;;;;;;5.00;2.83;;;-2.10;99.90;;;;;;5054876;28;20024;-54
2021/12/25 09:24:15;;;;;;;4.78;2.85;;;-2.10;99.90;;;;;;5053871;28;20049;-58
2021/12/25 09:26:41;;;;;;;4.75;2.92;;;-2.20;99.90;;;;;;5054421;28;20033;-60
2021/12/25 09:29:07;;;;;;;7.05;3.20;;;-2.20;99.90;;;;;;5054181;28;20029;-55
2021/12/25 09:31:33;;;;;;;4.13;2.92;;;-2.20;99.90;;;;;;5054269;28;20044;-58
2021/12/25 09:33:59;;;;;;;4.13;2.50;;;-2.20;99.90;;;;;;5054180;28;20045;-54
2021/12/25 09:36:24;;;;;;;4.50;2.65;;;-2.10;99.90;;;;;;5036458;28;20144;-54
2021/12/25 09:38:50;;;;;;;3.10;2.50;;;-2.10;99.90;;;;;;5054228;28;20029;-55
2021/12/25 09:41:17;;;;;;;4.13;2.65;;;-2.00;99.90;;;;;;5054663;28;20095;-55
2021/12/25 09:43:46;;;;;;;6.45;3.55;;;-2.00;99.90;;;;;;5053867;28;20192;-53
2021/12/25 09:46:12;;;;;;;3.60;2.28;;;-2.00;99.90;;;;;;5054977;28;20036;-52
2021/12/25 09:48:38;;;;;;;4.75;2.55;;;-2.00;99.90;;;;;;5055085;28;20037;-57
2021/12/25 09:51:04;;;;;;;4.20;2.45;;;-2.00;99.90;;;;;;5054355;28;20087;-52
2021/12/25 09:53:29;;;;;;;5.15;2.80;;;-1.90;99.90;;;;;;5053917;28;20036;-55
2021/12/25 09:55:55;;;;;;;5.80;3.10;;;-1.90;99.90;;;;;;5054297;28;20029;-55
2021/12/25 09:58:22;;;;;;;5.90;4.18;;;-1.90;99.70;;;;;;5053450;28;20061;-54
2021/12/25 10:00:51;;;;;;;3.72;2.53;;;-1.70;99.90;;;;;;5053178;28;20033;-57
2021/12/25 10:03:17;;;;;;;6.75;3.20;;;-1.50;99.90;;;;;;5053152;28;20021;-53
2021/12/25 10:05:45;;;;;;;6.90;3.35;;;-1.10;99.90;;;;;;5049087;28;20029;-53
2021/12/25 10:08:21;;;;;;;6.30;2.92;;;-1.20;99.70;;;;;;5034345;28;20128;-52
2021/12/25 10:11:01;;;;;;;4.85;3.00;;;-1.40;99.70;;;;;;5034108;28;20039;-56
2021/12/25 10:13:39;;;;;;;8.43;3.08;;;-1.30;99.90;;;;;;5042356;28;20453;-54
2021/12/25 10:16:25;;;;;;;4.47;2.72;;;-1.50;99.90;;;;;;5036003;28;20029;-56
2021/12/25 10:18:53;;;;;;;5.15;2.83;;;-1.50;99.90;;;;;;5052997;28;20028;-56
2021/12/25 10:21:27;;;;;;;7.43;3.00;;;-1.50;99.90;;;;;;5053443;28;20107;-52
2021/12/25 10:24:02;;;;;;;8.90;3.28;;;-1.50;99.80;;;;;;5050277;28;20497;-49
2021/12/25 10:26:27;;;;;;;8.10;3.45;;;-1.70;99.90;;;;;;5058128;28;20071;-51
2021/12/25 10:28:53;;;;;;;6.57;3.20;;;-1.70;99.90;;;;;;5035334;28;20044;-54
2021/12/25 10:31:32;;;;;;;5.80;2.85;;;-1.80;99.90;;;;;;5052729;28;20063;-50
2021/12/25 10:33:58;;;;;;;4.65;2.80;;;-1.60;99.90;;;;;;5053082;28;20021;-52
2021/12/25 10:36:31;;;;;;;5.88;2.78;;;-1.60;99.90;;;;;;5019219;28;20499;-52
2021/12/25 10:39:11;;;;;;;5.22;2.67;;;-1.70;99.90;;;;;;5053415;28;20110;-51
2021/12/25 10:41:52;;;;;;;5.35;3.03;;;-1.70;99.90;;;;;;5053645;28;20029;-52
2021/12/25 10:44:22;;;;;;;5.90;3.22;;;-1.80;99.90;;;;;;5051637;28;20025;-53
2021/12/25 10:46:57;;;;;;;4.55;2.60;;;-1.90;99.90;;;;;;5033841;28;20029;-53
2021/12/25 10:49:27;;;;;;;5.95;3.20;;;-1.70;99.90;;;;;;5043103;28;20113;-53
2021/12/25 10:51:53;;;;;;;7.97;4.35;;;-1.60;99.90;;;;;;5039179;28;20033;-51
2021/12/25 10:54:19;;;;;;;8.63;3.95;;;-1.60;99.90;;;;;;5033038;28;20044;-54
2021/12/25 10:56:49;;;;;;;5.22;3.00;;;-1.60;99.90;;;;;;5052805;28;20037;-52
2021/12/25 10:59:17;;;;;;;7.38;3.20;;;-1.60;99.90;;;;;;5051563;28;20083;-52
2021/12/25 11:01:49;;;;;;;5.78;3.60;;;-1.60;99.90;;;;;;5052728;28;20025;-53
2021/12/25 11:04:32;;;;;;;4.93;3.10;;;-1.70;99.90;;;;;;5052672;28;20037;-50
2021/12/25 11:06:58;;;;;;;4.93;3.00;;;-1.70;99.90;;;;;;5052920;28;20029;-53
2021/12/25 11:09:24;;;;;;;5.47;2.97;;;-1.60;99.90;;;;;;5041564;28;20043;-55
2021/12/25 11:12:19;;;;;;;8.75;4.05;;;-1.60;99.90;;;;;;5053327;28;20112;-51
2021/12/25 11:14:45;;;;;;;7.95;3.58;;;-1.50;99.90;;;;;;5052580;28;20036;-51
2021/12/25 11:17:41;;;;;;;4.38;2.95;;;-1.50;99.90;;;;;;5053141;28;20049;-50
2021/12/25 11:20:16;;;;;;;4.97;2.60;;;-1.80;99.80;;;;;;5028721;28;20041;-55
2021/12/25 11:22:55;;;;;;;5.28;2.88;;;-1.80;99.90;;;;;;5034234;28;20392;-54
2021/12/25 11:25:25;;;;;;;6.43;2.88;;;-1.60;99.90;;;;;;5052765;28;20384;-56
2021/12/25 11:27:51;;;;;;;5.45;3.03;;;-1.50;99.90;;;;;;5052772;28;20048;-51
2021/12/25 11:30:20;;;;;;;4.30;2.63;;;-1.60;99.90;;;;;;5034177;28;20033;-54
2021/12/25 11:32:47;;;;;;;4.47;2.33;;;-1.50;99.90;;;;;;5051304;28;20037;-54
2021/12/25 11:35:15;;;;;;;4.85;2.42;;;-1.50;99.80;;;;;;5036680;28;20115;-53
2021/12/25 11:37:41;;;;;;;4.40;2.40;;;-1.50;99.40;;;;;;5036601;28;20041;-52
2021/12/25 11:40:10;;;;;;;4.40;2.40;;;-1.60;99.50;;;;;;5056171;28;20151;-50
2021/12/25 11:42:42;;;;;;;5.72;2.40;;;-1.70;99.80;;;;;;5055300;28;20036;-55
2021/12/25 11:45:17;;;;;;;7.38;3.33;;;-1.70;99.90;;;;;;5056011;28;20032;-52
2021/12/25 11:47:45;;;;;;;6.88;3.35;;;-1.60;99.80;;;;;;5055966;28;20040;-54
2021/12/25 11:50:22;;;;;;;4.15;2.55;;;-1.70;99.90;;;;;;5056605;28;20069;-52
2021/12/25 11:53:21;;;;;;;4.45;2.80;;;-1.50;99.90;;;;;;5037127;28;20029;-51
2021/12/25 11:59:05;;;;;;;6.30;3.08;;;-1.20;99.40;;;;;;5055344;28;20048;-54
2021/12/25 12:01:44;;;;;;;8.00;3.88;;;-1.20;99.40;;;;;;5046038;28;20091;-51
2021/12/25 12:04:24;;;;;;;5.53;3.47;;;-1.10;99.90;;;;;;5037824;28;20017;-52
2021/12/25 12:07:00;;;;;;;4.82;2.65;;;-1.00;99.90;;;;;;5055387;28;20028;-50
2021/12/25 12:09:51;;;;;;;5.72;2.90;;;-1.10;99.50;;;;;;5037986;28;20043;-54
2021/12/25 12:12:28;;;;;;;4.53;2.85;;;-1.30;99.40;;;;;;5031132;28;20415;-54
2021/12/25 12:15:05;;;;;;;3.95;2.60;;;-1.40;99.40;;;;;;5047062;28;20047;-56
2021/12/25 12:17:32;;;;;;;6.15;2.92;;;-1.50;99.70;;;;;;5056810;28;20064;-56
2021/12/25 12:20:02;;;;;;;3.10;2.47;;;-1.50;99.90;;;;;;5055646;28;20044;-53
2021/12/25 12:22:46;;;;;;;5.57;2.90;;;-1.50;99.90;;;;;;5055864;28;20176;-52
2021/12/25 12:25:22;;;;;;;6.25;3.22;;;-1.50;99.90;;;;;;5055863;28;20450;-52
2021/12/25 12:27:52;;;;;;;5.68;3.25;;;-1.50;99.90;;;;;;5055912;28;20017;-48
2021/12/25 12:30:42;;;;;;;4.55;2.60;;;-1.60;99.90;;;;;;5055811;28;20068;-52
2021/12/25 12:33:19;;;;;;;3.72;2.50;;;-1.60;99.90;;;;;;5056077;28;20131;-53
2021/12/25 12:35:47;;;;;;;7.38;4.93;;;-1.60;99.90;;;;;;5055711;28;20122;-52
2021/12/25 12:38:37;;;;;;;10.95;4.68;;;-1.70;99.90;;;;;;5056112;28;20029;-53
2021/12/25 12:41:34;;;;;;;7.13;3.80;;;-1.70;99.70;;;;;;5055154;28;20025;-53
2021/12/25 12:44:06;;;;;;;7.20;3.65;;;-1.60;99.90;;;;;;5017158;28;20037;-52
2021/12/25 12:46:50;;;;;;;4.93;3.00;;;-1.50;99.90;;;;;;5017891;28;20033;-56
2021/12/25 12:49:23;;;;;;;5.32;3.17;;;-1.50;98.60;;;;;;5017282;28;20026;-54
2021/12/25 12:52:21;;;;;;;7.70;3.78;;;-1.70;99.40;;;;;;5034890;28;20034;-55
2021/12/25 12:54:54;;;;;;;6.50;3.17;;;-1.70;99.80;;;;;;5054811;28;20035;-49
2021/12/25 12:57:29;;;;;;;5.55;2.88;;;-1.70;99.40;;;;;;5054570;28;20101;-53
2021/12/25 13:00:00;;;;;;;7.38;3.88;;;-1.70;99.10;;;;;;5055723;28;20083;-53
2021/12/25 13:02:29;;;;;;;6.38;2.83;;;-1.80;98.70;;;;;;5055047;28;20120;-54
2021/12/25 13:05:00;;;;;;;7.28;3.90;;;-1.80;98.80;;;;;;5055211;28;20029;-51
2021/12/25 13:07:29;;;;;;;90.55;38.80;;;-1.70;99.00;;;;;;5036766;28;20040;-54
2021/12/25 13:10:10;;;;;;;7.82;4.30;;;-1.60;99.20;;;;;;5055471;28;20044;-50
2021/12/25 13:12:46;;;;;;;6.03;2.60;;;-1.40;98.80;;;;;;5053910;28;20033;-51
2021/12/25 13:15:25;;;;;;;4.95;2.85;;;-1.40;98.50;;;;;;5050488;28;20178;-55
2021/12/25 13:17:54;;;;;;;4.15;2.80;;;-1.40;98.40;;;;;;5054889;28;20071;-53
2021/12/25 13:20:43;;;;;;;5.57;3.75;;;-1.40;98.80;;;;;;5053814;28;20087;-52
2021/12/25 13:23:16;;;;;;;4.70;2.90;;;-1.30;99.20;;;;;;5035119;28;20068;-52
2021/12/25 13:25:58;;;;;;;7.30;3.03;;;-1.10;99.10;;;;;;5048346;28;20427;-52
2021/12/25 13:28:26;;;;;;;8.50;3.35;;;-1.00;98.10;;;;;;5037539;28;20558;-52
2021/12/25 13:30:59;;;;;;;4.38;2.83;;;-1.10;98.50;;;;;;5053751;28;20116;-53
2021/12/25 13:33:27;;;;;;;8.60;3.95;;;-1.00;99.00;;;;;;5053853;28;20025;-52
2021/12/25 13:36:04;;;;;;;12.10;5.70;;;-1.00;98.70;;;;;;5054019;28;20025;-52
2021/12/25 13:38:43;;;;;;;7.30;3.60;;;-1.00;98.70;;;;;;5054508;28;20033;-52
2021/12/25 13:41:09;;;;;;;5.43;2.95;;;-0.70;98.90;;;;;;5054141;28;20029;-51
2021/12/25 13:43:34;;;;;;;4.65;3.00;;;-0.70;98.60;;;;;;5038701;28;20512;-50
2021/12/25 13:46:00;;;;;;;5.03;2.60;;;-0.70;98.20;;;;;;5053927;28;20499;-53
2021/12/25 13:48:26;;;;;;;6.30;3.47;;;-0.70;97.90;;;;;;5036154;28;20501;-52
2021/12/25 13:51:01;;;;;;;9.40;4.45;;;-0.80;97.50;;;;;;5054248;28;20028;-51
2021/12/25 13:53:29;;;;;;;5.88;3.25;;;-1.00;97.70;;;;;;5035719;28;20034;-49
2021/12/25 13:55:54;;;;;;;6.93;2.50;;;-1.20;97.00;;;;;;5036372;28;20029;-49
2021/12/25 13:58:20;;;;;;;4.38;2.50;;;-1.20;97.60;;;;;;5052306;28;20063;-51
2021/12/25 14:00:51;;;;;;;5.32;3.30;;;-0.90;97.30;;;;;;5052071;28;20032;-53
2021/12/25 14:03:20;;;;;;;4.32;2.50;;;-0.40;96.30;;;;;;5053369;28;20040;-52
2021/12/25 14:05:48;;;;;;;4.10;2.60;;;0.30;96.00;;;;;;5035074;28;20060;-50
2021/12/25 14:08:17;;;;;;;3.58;2.60;;;1.10;94.00;;;;;;5052831;28;20040;-53
2021/12/25 14:10:43;;;;;;;4.68;2.67;;;1.90;92.40;;;;;;5052714;28;20065;-52
2021/12/25 14:13:20;;;;;;;5.03;3.00;;;2.50;90.90;;;;;;5052507;28;20032;-51